Terminal Aerodrome Forecast
Issued by NWS Anchorage, AK

Home | Current Version | Previous Version | Text Only | Print | Product List | Glossary On
Versions: 1 2 3 4 5 6 7 8 9 10 11 12 13 14 15 16 17 18 19 20 21 22 23 24 25
000
FTAK31 PANC 010521
TAFANC
TAF
PANC 010521Z 0106/0212 15014G22KT P6SM FEW060 SCT150
     FM011000 VRB04KT P6SM FEW060 SCT150
     FM012000 24008KT P6SM FEW060
     FM020700 16015G25KT P6SM SCT060 BKN120=

USA.gov is the U.S. government's official web portal to all federal, state and local government web resources and services.